sensor_id;sensor_type;location;lat;lon;timestamp;P1;durP1;ratioP1;P2;durP2;ratioP2
21979;SDS011;11154;48.558;9.234;2023-10-08T00:00:17;8.35;;;4.13;;
21979;SDS011;11154;48.558;9.234;2023-10-08T00:02:33;7.65;;;4.28;;
21979;SDS011;11154;48.558;9.234;2023-10-08T00:04:35;8.07;;;4.65;;
21979;SDS011;11154;48.558;9.234;2023-10-08T00:06:38;8.55;;;4.63;;
21979;SDS011;11154;48.558;9.234;2023-10-08T00:08:40;9.98;;;4.45;;
21979;SDS011;11154;48.558;9.234;2023-10-08T00:10:42;8.55;;;4.70;;
21979;SDS011;11154;48.558;9.234;2023-10-08T00:12:44;7.18;;;4.10;;
21979;SDS011;11154;48.558;9.234;2023-10-08T00:14:48;9.48;;;4.97;;
21979;SDS011;11154;48.558;9.234;2023-10-08T00:16:53;7.75;;;4.00;;
21979;SDS011;11154;48.558;9.234;2023-10-08T00:18:55;7.50;;;4.20;;
21979;SDS011;11154;48.558;9.234;2023-10-08T00:21:00;7.70;;;4.88;;
21979;SDS011;11154;48.558;9.234;2023-10-08T00:23:17;8.13;;;4.68;;
21979;SDS011;11154;48.558;9.234;2023-10-08T00:25:19;10.13;;;4.32;;
21979;SDS011;11154;48.558;9.234;2023-10-08T00:27:21;10.90;;;7.03;;
21979;SDS011;11154;48.558;9.234;2023-10-08T00:29:23;13.95;;;8.27;;
21979;SDS011;11154;48.558;9.234;2023-10-08T00:31:25;9.82;;;5.28;;
21979;SDS011;11154;48.558;9.234;2023-10-08T00:33:31;8.23;;;4.50;;
21979;SDS011;11154;48.558;9.234;2023-10-08T00:35:36;7.47;;;4.07;;
21979;SDS011;11154;48.558;9.234;2023-10-08T00:37:38;7.95;;;4.47;;
21979;SDS011;11154;48.558;9.234;2023-10-08T00:39:42;9.27;;;4.60;;
21979;SDS011;11154;48.558;9.234;2023-10-08T00:41:45;8.45;;;4.60;;
21979;SDS011;11154;48.558;9.234;2023-10-08T00:43:47;7.50;;;4.40;;
21979;SDS011;11154;48.558;9.234;2023-10-08T00:45:51;9.32;;;4.63;;
21979;SDS011;11154;48.558;9.234;2023-10-08T00:47:52;8.93;;;4.85;;
21979;SDS011;11154;48.558;9.234;2023-10-08T00:49:56;7.13;;;4.10;;
21979;SDS011;11154;48.558;9.234;2023-10-08T00:52:08;7.95;;;4.88;;
21979;SDS011;11154;48.558;9.234;2023-10-08T00:54:25;9.43;;;4.47;;
21979;SDS011;11154;48.558;9.234;2023-10-08T00:56:34;9.40;;;4.50;;
21979;SDS011;11154;48.558;9.234;2023-10-08T00:58:50;9.60;;;4.60;;
21979;SDS011;11154;48.558;9.234;2023-10-08T01:00:54;8.68;;;4.70;;
21979;SDS011;11154;48.558;9.234;2023-10-08T01:02:59;8.75;;;4.53;;
21979;SDS011;11154;48.558;9.234;2023-10-08T01:05:02;13.25;;;4.65;;
21979;SDS011;11154;48.558;9.234;2023-10-08T01:07:02;8.40;;;4.28;;
21979;SDS011;11154;48.558;9.234;2023-10-08T01:11:19;7.68;;;4.13;;
21979;SDS011;11154;48.558;9.234;2023-10-08T01:13:45;7.90;;;4.57;;
21979;SDS011;11154;48.558;9.234;2023-10-08T01:15:47;7.55;;;4.40;;
21979;SDS011;11154;48.558;9.234;2023-10-08T01:17:51;9.10;;;4.18;;
21979;SDS011;11154;48.558;9.234;2023-10-08T01:19:54;8.43;;;4.30;;
21979;SDS011;11154;48.558;9.234;2023-10-08T01:22:10;8.05;;;4.35;;
21979;SDS011;11154;48.558;9.234;2023-10-08T01:24:16;8.80;;;4.07;;
21979;SDS011;11154;48.558;9.234;2023-10-08T01:26:24;11.45;;;4.78;;
21979;SDS011;11154;48.558;9.234;2023-10-08T01:28:25;11.75;;;3.95;;
21979;SDS011;11154;48.558;9.234;2023-10-08T01:30:29;8.75;;;4.35;;
21979;SDS011;11154;48.558;9.234;2023-10-08T01:32:35;7.38;;;4.15;;
21979;SDS011;11154;48.558;9.234;2023-10-08T01:34:37;8.52;;;4.05;;
21979;SDS011;11154;48.558;9.234;2023-10-08T01:36:39;10.95;;;4.38;;
21979;SDS011;11154;48.558;9.234;2023-10-08T01:38:44;6.07;;;3.70;;
21979;SDS011;11154;48.558;9.234;2023-10-08T01:40:48;9.60;;;4.57;;
21979;SDS011;11154;48.558;9.234;2023-10-08T01:42:51;8.15;;;4.00;;
21979;SDS011;11154;48.558;9.234;2023-10-08T01:44:53;11.77;;;4.85;;
21979;SDS011;11154;48.558;9.234;2023-10-08T01:46:55;8.98;;;4.40;;
21979;SDS011;11154;48.558;9.234;2023-10-08T01:48:58;8.00;;;4.10;;
21979;SDS011;11154;48.558;9.234;2023-10-08T01:51:07;9.68;;;4.82;;
21979;SDS011;11154;48.558;9.234;2023-10-08T01:53:11;10.68;;;4.05;;
21979;SDS011;11154;48.558;9.234;2023-10-08T01:55:16;7.78;;;4.20;;
21979;SDS011;11154;48.558;9.234;2023-10-08T01:57:19;9.13;;;4.43;;
21979;SDS011;11154;48.558;9.234;2023-10-08T01:59:20;11.27;;;4.45;;
21979;SDS011;11154;48.558;9.234;2023-10-08T02:01:22;11.18;;;4.78;;
21979;SDS011;11154;48.558;9.234;2023-10-08T02:03:23;7.70;;;4.20;;
21979;SDS011;11154;48.558;9.234;2023-10-08T02:05:25;7.13;;;4.30;;
21979;SDS011;11154;48.558;9.234;2023-10-08T02:07:30;8.75;;;4.05;;
21979;SDS011;11154;48.558;9.234;2023-10-08T02:09:32;8.98;;;4.13;;
21979;SDS011;11154;48.558;9.234;2023-10-08T02:11:45;8.52;;;4.82;;
21979;SDS011;11154;48.558;9.234;2023-10-08T02:13:50;6.88;;;3.95;;
21979;SDS011;11154;48.558;9.234;2023-10-08T02:15:51;8.80;;;4.40;;
21979;SDS011;11154;48.558;9.234;2023-10-08T02:17:53;8.68;;;4.63;;
21979;SDS011;11154;48.558;9.234;2023-10-08T02:19:54;7.40;;;4.10;;
21979;SDS011;11154;48.558;9.234;2023-10-08T02:21:56;10.90;;;4.50;;
21979;SDS011;11154;48.558;9.234;2023-10-08T02:23:59;8.90;;;4.45;;
21979;SDS011;11154;48.558;9.234;2023-10-08T02:26:03;9.35;;;4.32;;
21979;SDS011;11154;48.558;9.234;2023-10-08T02:28:07;8.38;;;4.00;;
21979;SDS011;11154;48.558;9.234;2023-10-08T02:30:10;7.95;;;4.30;;
21979;SDS011;11154;48.558;9.234;2023-10-08T02:32:12;9.02;;;4.53;;
21979;SDS011;11154;48.558;9.234;2023-10-08T02:34:15;11.10;;;4.65;;
21979;SDS011;11154;48.558;9.234;2023-10-08T02:36:17;8.13;;;3.70;;
21979;SDS011;11154;48.558;9.234;2023-10-08T02:38:19;7.53;;;4.15;;
21979;SDS011;11154;48.558;9.234;2023-10-08T02:40:22;8.10;;;4.63;;
21979;SDS011;11154;48.558;9.234;2023-10-08T02:42:27;8.65;;;4.22;;
21979;SDS011;11154;48.558;9.234;2023-10-08T02:44:30;9.70;;;4.32;;
21979;SDS011;11154;48.558;9.234;2023-10-08T02:46:32;8.15;;;3.88;;
21979;SDS011;11154;48.558;9.234;2023-10-08T02:48:34;11.60;;;3.95;;
21979;SDS011;11154;48.558;9.234;2023-10-08T02:50:36;7.97;;;4.72;;
21979;SDS011;11154;48.558;9.234;2023-10-08T02:52:39;7.28;;;4.45;;
21979;SDS011;11154;48.558;9.234;2023-10-08T02:54:40;7.78;;;4.25;;
21979;SDS011;11154;48.558;9.234;2023-10-08T02:56:42;9.68;;;4.35;;
21979;SDS011;11154;48.558;9.234;2023-10-08T02:58:45;8.85;;;5.00;;
21979;SDS011;11154;48.558;9.234;2023-10-08T03:00:49;8.95;;;4.60;;
21979;SDS011;11154;48.558;9.234;2023-10-08T03:02:53;11.30;;;4.18;;
21979;SDS011;11154;48.558;9.234;2023-10-08T03:04:54;8.35;;;4.40;;
21979;SDS011;11154;48.558;9.234;2023-10-08T03:06:56;6.25;;;3.63;;
21979;SDS011;11154;48.558;9.234;2023-10-08T03:08:58;7.80;;;4.20;;
21979;SDS011;11154;48.558;9.234;2023-10-08T03:11:04;8.73;;;4.60;;
21979;SDS011;11154;48.558;9.234;2023-10-08T03:13:07;9.65;;;4.13;;
21979;SDS011;11154;48.558;9.234;2023-10-08T03:15:11;8.93;;;3.95;;
21979;SDS011;11154;48.558;9.234;2023-10-08T03:17:15;10.18;;;4.63;;
21979;SDS011;11154;48.558;9.234;2023-10-08T03:19:21;7.35;;;4.07;;
21979;SDS011;11154;48.558;9.234;2023-10-08T03:21:24;7.68;;;3.83;;
21979;SDS011;11154;48.558;9.234;2023-10-08T03:23:40;10.05;;;4.05;;
21979;SDS011;11154;48.558;9.234;2023-10-08T03:25:47;8.85;;;4.07;;
21979;SDS011;11154;48.558;9.234;2023-10-08T03:27:56;15.40;;;4.72;;
21979;SDS011;11154;48.558;9.234;2023-10-08T03:29:59;6.70;;;3.67;;
21979;SDS011;11154;48.558;9.234;2023-10-08T03:32:01;10.20;;;4.13;;
21979;SDS011;11154;48.558;9.234;2023-10-08T03:34:07;12.50;;;4.30;;
21979;SDS011;11154;48.558;9.234;2023-10-08T03:36:12;8.07;;;3.72;;
21979;SDS011;11154;48.558;9.234;2023-10-08T03:38:21;9.35;;;4.78;;
21979;SDS011;11154;48.558;9.234;2023-10-08T03:40:28;9.82;;;4.40;;
21979;SDS011;11154;48.558;9.234;2023-10-08T03:42:42;9.00;;;3.90;;
21979;SDS011;11154;48.558;9.234;2023-10-08T03:44:49;7.50;;;4.10;;
21979;SDS011;11154;48.558;9.234;2023-10-08T03:46:52;7.18;;;4.20;;
21979;SDS011;11154;48.558;9.234;2023-10-08T03:48:57;11.50;;;4.10;;
21979;SDS011;11154;48.558;9.234;2023-10-08T03:51:06;7.32;;;4.25;;
21979;SDS011;11154;48.558;9.234;2023-10-08T03:53:12;10.05;;;3.58;;
21979;SDS011;11154;48.558;9.234;2023-10-08T03:55:13;10.75;;;4.40;;
21979;SDS011;11154;48.558;9.234;2023-10-08T03:57:22;11.07;;;4.60;;
21979;SDS011;11154;48.558;9.234;2023-10-08T03:59:41;12.77;;;4.38;;
21979;SDS011;11154;48.558;9.234;2023-10-08T04:01:42;9.18;;;4.10;;
21979;SDS011;11154;48.558;9.234;2023-10-08T04:03:45;12.30;;;3.63;;
21979;SDS011;11154;48.558;9.234;2023-10-08T04:05:58;7.85;;;4.05;;
21979;SDS011;11154;48.558;9.234;2023-10-08T04:08:16;8.23;;;3.65;;
21979;SDS011;11154;48.558;9.234;2023-10-08T04:10:24;8.48;;;4.05;;
21979;SDS011;11154;48.558;9.234;2023-10-08T04:13:00;8.10;;;4.13;;
21979;SDS011;11154;48.558;9.234;2023-10-08T04:15:01;10.45;;;3.92;;
21979;SDS011;11154;48.558;9.234;2023-10-08T04:17:07;6.75;;;3.63;;
21979;SDS011;11154;48.558;9.234;2023-10-08T04:19:10;10.38;;;4.10;;
21979;SDS011;11154;48.558;9.234;2023-10-08T04:21:12;8.95;;;4.38;;
21979;SDS011;11154;48.558;9.234;2023-10-08T04:23:13;10.73;;;4.50;;
21979;SDS011;11154;48.558;9.234;2023-10-08T04:25:19;10.55;;;4.53;;
21979;SDS011;11154;48.558;9.234;2023-10-08T04:27:20;7.78;;;3.65;;
21979;SDS011;11154;48.558;9.234;2023-10-08T04:29:22;9.85;;;4.00;;
21979;SDS011;11154;48.558;9.234;2023-10-08T04:31:25;10.00;;;4.03;;
21979;SDS011;11154;48.558;9.234;2023-10-08T04:33:28;10.18;;;3.97;;
21979;SDS011;11154;48.558;9.234;2023-10-08T04:35:34;12.32;;;4.05;;
21979;SDS011;11154;48.558;9.234;2023-10-08T04:37:38;13.60;;;4.57;;
21979;SDS011;11154;48.558;9.234;2023-10-08T04:39:42;8.95;;;4.22;;
21979;SDS011;11154;48.558;9.234;2023-10-08T04:41:54;9.02;;;3.78;;
21979;SDS011;11154;48.558;9.234;2023-10-08T04:44:00;8.95;;;3.58;;
21979;SDS011;11154;48.558;9.234;2023-10-08T04:46:07;11.23;;;3.90;;
21979;SDS011;11154;48.558;9.234;2023-10-08T04:48:19;7.90;;;4.18;;
21979;SDS011;11154;48.558;9.234;2023-10-08T04:50:21;12.57;;;3.90;;
21979;SDS011;11154;48.558;9.234;2023-10-08T04:52:30;11.07;;;4.15;;
21979;SDS011;11154;48.558;9.234;2023-10-08T04:54:34;13.50;;;4.63;;
21979;SDS011;11154;48.558;9.234;2023-10-08T04:56:41;10.13;;;3.97;;
21979;SDS011;11154;48.558;9.234;2023-10-08T04:58:42;8.10;;;4.25;;
21979;SDS011;11154;48.558;9.234;2023-10-08T05:00:46;7.57;;;4.60;;
21979;SDS011;11154;48.558;9.234;2023-10-08T05:02:53;8.77;;;3.83;;
21979;SDS011;11154;48.558;9.234;2023-10-08T05:05:04;8.30;;;4.28;;
21979;SDS011;11154;48.558;9.234;2023-10-08T05:07:23;8.20;;;3.90;;
21979;SDS011;11154;48.558;9.234;2023-10-08T05:09:57;6.18;;;3.70;;
21979;SDS011;11154;48.558;9.234;2023-10-08T05:12:19;7.70;;;4.07;;
21979;SDS011;11154;48.558;9.234;2023-10-08T05:14:34;8.35;;;4.10;;
21979;SDS011;11154;48.558;9.234;2023-10-08T05:16:45;7.45;;;4.18;;
21979;SDS011;11154;48.558;9.234;2023-10-08T05:19:00;7.53;;;4.22;;
21979;SDS011;11154;48.558;9.234;2023-10-08T05:21:14;11.52;;;4.60;;
21979;SDS011;11154;48.558;9.234;2023-10-08T05:23:25;8.68;;;4.45;;
21979;SDS011;11154;48.558;9.234;2023-10-08T05:25:53;8.40;;;4.38;;
21979;SDS011;11154;48.558;9.234;2023-10-08T05:28:10;7.80;;;3.80;;
21979;SDS011;11154;48.558;9.234;2023-10-08T05:30:24;7.57;;;3.70;;
21979;SDS011;11154;48.558;9.234;2023-10-08T05:32:38;8.38;;;3.90;;
21979;SDS011;11154;48.558;9.234;2023-10-08T05:34:44;11.07;;;4.35;;
21979;SDS011;11154;48.558;9.234;2023-10-08T05:37:13;8.60;;;3.88;;
21979;SDS011;11154;48.558;9.234;2023-10-08T05:39:32;9.20;;;4.05;;
21979;SDS011;11154;48.558;9.234;2023-10-08T05:41:42;8.27;;;4.22;;
21979;SDS011;11154;48.558;9.234;2023-10-08T05:43:53;8.10;;;3.85;;
21979;SDS011;11154;48.558;9.234;2023-10-08T05:46:13;7.68;;;4.40;;
21979;SDS011;11154;48.558;9.234;2023-10-08T05:48:35;9.40;;;4.03;;
21979;SDS011;11154;48.558;9.234;2023-10-08T05:50:45;7.72;;;3.88;;
21979;SDS011;11154;48.558;9.234;2023-10-08T05:52:55;8.75;;;4.00;;
21979;SDS011;11154;48.558;9.234;2023-10-08T05:55:15;7.07;;;4.18;;
21979;SDS011;11154;48.558;9.234;2023-10-08T05:57:22;9.77;;;4.03;;
21979;SDS011;11154;48.558;9.234;2023-10-08T05:59:40;8.07;;;3.92;;
21979;SDS011;11154;48.558;9.234;2023-10-08T06:02:13;7.78;;;4.10;;
21979;SDS011;11154;48.558;9.234;2023-10-08T06:04:28;6.80;;;4.07;;
21979;SDS011;11154;48.558;9.234;2023-10-08T06:06:53;7.28;;;4.32;;
21979;SDS011;11154;48.558;9.234;2023-10-08T06:09:12;8.38;;;3.80;;
21979;SDS011;11154;48.558;9.234;2023-10-08T06:11:22;5.60;;;3.63;;
21979;SDS011;11154;48.558;9.234;2023-10-08T06:13:41;8.90;;;4.50;;
21979;SDS011;11154;48.558;9.234;2023-10-08T06:15:52;10.68;;;4.07;;
21979;SDS011;11154;48.558;9.234;2023-10-08T06:18:05;10.05;;;4.35;;
21979;SDS011;11154;48.558;9.234;2023-10-08T06:20:08;6.47;;;3.80;;
21979;SDS011;11154;48.558;9.234;2023-10-08T06:22:16;14.88;;;5.43;;
21979;SDS011;11154;48.558;9.234;2023-10-08T06:24:19;10.32;;;6.90;;
21979;SDS011;11154;48.558;9.234;2023-10-08T06:26:20;9.07;;;5.22;;
21979;SDS011;11154;48.558;9.234;2023-10-08T06:28:25;9.80;;;4.93;;
21979;SDS011;11154;48.558;9.234;2023-10-08T06:30:27;6.65;;;4.15;;
21979;SDS011;11154;48.558;9.234;2023-10-08T06:32:35;8.10;;;4.28;;
21979;SDS011;11154;48.558;9.234;2023-10-08T06:34:38;8.68;;;4.72;;
21979;SDS011;11154;48.558;9.234;2023-10-08T06:36:40;10.25;;;3.97;;
21979;SDS011;11154;48.558;9.234;2023-10-08T06:38:42;7.05;;;3.65;;
21979;SDS011;11154;48.558;9.234;2023-10-08T06:40:48;9.90;;;4.32;;
21979;SDS011;11154;48.558;9.234;2023-10-08T06:42:52;9.68;;;3.72;;
21979;SDS011;11154;48.558;9.234;2023-10-08T06:44:57;7.75;;;3.75;;
21979;SDS011;11154;48.558;9.234;2023-10-08T06:46:58;9.02;;;4.10;;
21979;SDS011;11154;48.558;9.234;2023-10-08T06:49:02;9.77;;;4.40;;
21979;SDS011;11154;48.558;9.234;2023-10-08T06:51:06;10.55;;;3.90;;
21979;SDS011;11154;48.558;9.234;2023-10-08T06:53:13;10.82;;;4.20;;
21979;SDS011;11154;48.558;9.234;2023-10-08T06:55:14;9.07;;;4.05;;
21979;SDS011;11154;48.558;9.234;2023-10-08T06:57:17;10.95;;;4.10;;
21979;SDS011;11154;48.558;9.234;2023-10-08T06:59:20;9.88;;;3.90;;
21979;SDS011;11154;48.558;9.234;2023-10-08T07:01:23;8.93;;;3.70;;
21979;SDS011;11154;48.558;9.234;2023-10-08T07:03:25;12.75;;;3.72;;
21979;SDS011;11154;48.558;9.234;2023-10-08T07:05:29;10.85;;;3.80;;
21979;SDS011;11154;48.558;9.234;2023-10-08T07:07:29;8.05;;;3.50;;
21979;SDS011;11154;48.558;9.234;2023-10-08T07:09:32;9.88;;;3.22;;
21979;SDS011;11154;48.558;9.234;2023-10-08T07:11:36;8.52;;;3.88;;
21979;SDS011;11154;48.558;9.234;2023-10-08T07:13:39;7.65;;;4.40;;
21979;SDS011;11154;48.558;9.234;2023-10-08T07:15:42;9.63;;;3.53;;
21979;SDS011;11154;48.558;9.234;2023-10-08T07:17:45;13.60;;;4.65;;
21979;SDS011;11154;48.558;9.234;2023-10-08T07:19:45;11.63;;;3.97;;
21979;SDS011;11154;48.558;9.234;2023-10-08T07:21:52;8.63;;;4.20;;
21979;SDS011;11154;48.558;9.234;2023-10-08T07:24:03;9.38;;;4.25;;
21979;SDS011;11154;48.558;9.234;2023-10-08T07:26:10;9.00;;;4.00;;
21979;SDS011;11154;48.558;9.234;2023-10-08T07:28:11;9.75;;;4.15;;
21979;SDS011;11154;48.558;9.234;2023-10-08T07:30:12;9.93;;;4.10;;
21979;SDS011;11154;48.558;9.234;2023-10-08T07:32:26;11.40;;;4.47;;
21979;SDS011;11154;48.558;9.234;2023-10-08T07:34:30;7.28;;;3.88;;
21979;SDS011;11154;48.558;9.234;2023-10-08T07:36:33;9.30;;;4.05;;
21979;SDS011;11154;48.558;9.234;2023-10-08T07:38:36;6.90;;;3.72;;
21979;SDS011;11154;48.558;9.234;2023-10-08T07:40:37;6.50;;;3.40;;
21979;SDS011;11154;48.558;9.234;2023-10-08T07:42:38;7.57;;;4.10;;
21979;SDS011;11154;48.558;9.234;2023-10-08T07:44:39;13.70;;;4.18;;
21979;SDS011;11154;48.558;9.234;2023-10-08T07:46:41;9.13;;;4.35;;
21979;SDS011;11154;48.558;9.234;2023-10-08T07:48:42;7.88;;;4.05;;
21979;SDS011;11154;48.558;9.234;2023-10-08T07:50:44;7.55;;;3.45;;
21979;SDS011;11154;48.558;9.234;2023-10-08T07:52:46;16.08;;;3.80;;
21979;SDS011;11154;48.558;9.234;2023-10-08T07:54:48;9.20;;;3.88;;
21979;SDS011;11154;48.558;9.234;2023-10-08T07:56:50;8.30;;;3.80;;
21979;SDS011;11154;48.558;9.234;2023-10-08T07:58:54;11.45;;;4.25;;
21979;SDS011;11154;48.558;9.234;2023-10-08T08:00:56;10.80;;;4.00;;
21979;SDS011;11154;48.558;9.234;2023-10-08T08:03:00;9.20;;;3.63;;
21979;SDS011;11154;48.558;9.234;2023-10-08T08:05:05;7.47;;;3.40;;
21979;SDS011;11154;48.558;9.234;2023-10-08T08:07:06;12.52;;;3.40;;
21979;SDS011;11154;48.558;9.234;2023-10-08T08:09:16;8.43;;;3.72;;
21979;SDS011;11154;48.558;9.234;2023-10-08T08:11:21;6.78;;;3.40;;
21979;SDS011;11154;48.558;9.234;2023-10-08T08:13:26;11.27;;;4.03;;
21979;SDS011;11154;48.558;9.234;2023-10-08T08:15:28;7.47;;;3.50;;
21979;SDS011;11154;48.558;9.234;2023-10-08T08:17:30;11.18;;;3.90;;
21979;SDS011;11154;48.558;9.234;2023-10-08T08:19:33;10.77;;;4.25;;
21979;SDS011;11154;48.558;9.234;2023-10-08T08:21:36;7.18;;;3.38;;
21979;SDS011;11154;48.558;9.234;2023-10-08T08:23:37;11.50;;;3.83;;
21979;SDS011;11154;48.558;9.234;2023-10-08T08:25:39;9.55;;;3.60;;
21979;SDS011;11154;48.558;9.234;2023-10-08T08:27:56;8.55;;;3.05;;
21979;SDS011;11154;48.558;9.234;2023-10-08T08:30:00;17.48;;;4.13;;
21979;SDS011;11154;48.558;9.234;2023-10-08T08:32:11;14.15;;;3.80;;
21979;SDS011;11154;48.558;9.234;2023-10-08T08:34:15;16.00;;;3.92;;
21979;SDS011;11154;48.558;9.234;2023-10-08T08:36:20;6.50;;;3.03;;
21979;SDS011;11154;48.558;9.234;2023-10-08T08:38:22;9.18;;;3.50;;
21979;SDS011;11154;48.558;9.234;2023-10-08T08:40:24;7.82;;;2.88;;
21979;SDS011;11154;48.558;9.234;2023-10-08T08:42:25;11.00;;;3.72;;
21979;SDS011;11154;48.558;9.234;2023-10-08T08:44:32;7.40;;;2.65;;
21979;SDS011;11154;48.558;9.234;2023-10-08T08:46:36;11.23;;;4.00;;
21979;SDS011;11154;48.558;9.234;2023-10-08T08:48:40;10.88;;;3.58;;
21979;SDS011;11154;48.558;9.234;2023-10-08T08:50:41;7.63;;;3.42;;
21979;SDS011;11154;48.558;9.234;2023-10-08T08:52:44;9.73;;;3.22;;
21979;SDS011;11154;48.558;9.234;2023-10-08T08:54:46;9.15;;;2.90;;
21979;SDS011;11154;48.558;9.234;2023-10-08T08:56:48;9.38;;;3.20;;
21979;SDS011;11154;48.558;9.234;2023-10-08T08:58:51;6.72;;;2.88;;
21979;SDS011;11154;48.558;9.234;2023-10-08T09:00:54;8.23;;;3.40;;
21979;SDS011;11154;48.558;9.234;2023-10-08T09:02:56;8.75;;;3.17;;
21979;SDS011;11154;48.558;9.234;2023-10-08T09:04:57;7.43;;;3.17;;
21979;SDS011;11154;48.558;9.234;2023-10-08T09:07:00;6.53;;;3.10;;
21979;SDS011;11154;48.558;9.234;2023-10-08T09:09:04;10.40;;;3.08;;
21979;SDS011;11154;48.558;9.234;2023-10-08T09:11:21;5.32;;;3.00;;
21979;SDS011;11154;48.558;9.234;2023-10-08T09:13:26;8.38;;;3.13;;
21979;SDS011;11154;48.558;9.234;2023-10-08T09:15:29;9.48;;;3.17;;
21979;SDS011;11154;48.558;9.234;2023-10-08T09:17:33;7.43;;;2.88;;
21979;SDS011;11154;48.558;9.234;2023-10-08T09:19:38;8.38;;;2.70;;
21979;SDS011;11154;48.558;9.234;2023-10-08T09:21:40;9.98;;;3.72;;
21979;SDS011;11154;48.558;9.234;2023-10-08T09:23:41;8.70;;;3.17;;
21979;SDS011;11154;48.558;9.234;2023-10-08T09:25:48;7.40;;;2.90;;
21979;SDS011;11154;48.558;9.234;2023-10-08T09:27:50;8.57;;;3.17;;
21979;SDS011;11154;48.558;9.234;2023-10-08T09:29:56;7.03;;;3.08;;
21979;SDS011;11154;48.558;9.234;2023-10-08T09:31:59;7.85;;;2.90;;
21979;SDS011;11154;48.558;9.234;2023-10-08T09:34:02;11.57;;;3.80;;
21979;SDS011;11154;48.558;9.234;2023-10-08T09:36:04;9.85;;;3.00;;
21979;SDS011;11154;48.558;9.234;2023-10-08T09:38:07;9.00;;;3.33;;
21979;SDS011;11154;48.558;9.234;2023-10-08T09:40:10;7.63;;;3.50;;
21979;SDS011;11154;48.558;9.234;2023-10-08T09:42:13;8.43;;;3.42;;
21979;SDS011;11154;48.558;9.234;2023-10-08T09:44:14;7.88;;;3.30;;
21979;SDS011;11154;48.558;9.234;2023-10-08T09:46:18;6.63;;;2.75;;
21979;SDS011;11154;48.558;9.234;2023-10-08T09:48:20;8.25;;;3.13;;
21979;SDS011;11154;48.558;9.234;2023-10-08T09:50:28;6.72;;;3.03;;
21979;SDS011;11154;48.558;9.234;2023-10-08T09:52:34;6.97;;;3.28;;
21979;SDS011;11154;48.558;9.234;2023-10-08T09:54:42;9.52;;;3.10;;
21979;SDS011;11154;48.558;9.234;2023-10-08T09:56:47;7.35;;;3.13;;
21979;SDS011;11154;48.558;9.234;2023-10-08T09:58:49;10.85;;;3.10;;
21979;SDS011;11154;48.558;9.234;2023-10-08T10:00:51;7.80;;;3.00;;
21979;SDS011;11154;48.558;9.234;2023-10-08T10:02:56;8.07;;;3.50;;
21979;SDS011;11154;48.558;9.234;2023-10-08T10:05:01;7.97;;;3.42;;
21979;SDS011;11154;48.558;9.234;2023-10-08T10:07:10;10.00;;;3.25;;
21979;SDS011;11154;48.558;9.234;2023-10-08T10:09:19;10.07;;;3.15;;
21979;SDS011;11154;48.558;9.234;2023-10-08T10:11:25;12.23;;;4.05;;
21979;SDS011;11154;48.558;9.234;2023-10-08T10:13:27;11.43;;;3.70;;
21979;SDS011;11154;48.558;9.234;2023-10-08T10:15:28;15.65;;;4.10;;
21979;SDS011;11154;48.558;9.234;2023-10-08T10:17:31;11.80;;;4.90;;
21979;SDS011;11154;48.558;9.234;2023-10-08T10:19:32;10.38;;;3.30;;
21979;SDS011;11154;48.558;9.234;2023-10-08T10:21:33;12.05;;;3.53;;
21979;SDS011;11154;48.558;9.234;2023-10-08T10:23:37;13.73;;;3.75;;
21979;SDS011;11154;48.558;9.234;2023-10-08T10:25:40;12.60;;;3.60;;
21979;SDS011;11154;48.558;9.234;2023-10-08T10:30:21;11.77;;;3.45;;
21979;SDS011;11154;48.558;9.234;2023-10-08T10:32:23;15.93;;;3.92;;
21979;SDS011;11154;48.558;9.234;2023-10-08T10:34:26;13.13;;;3.65;;
21979;SDS011;11154;48.558;9.234;2023-10-08T10:36:27;14.95;;;3.40;;
21979;SDS011;11154;48.558;9.234;2023-10-08T10:38:31;16.45;;;4.10;;
21979;SDS011;11154;48.558;9.234;2023-10-08T10:40:35;15.80;;;3.60;;
21979;SDS011;11154;48.558;9.234;2023-10-08T10:42:40;11.52;;;3.40;;
21979;SDS011;11154;48.558;9.234;2023-10-08T10:44:44;8.45;;;3.17;;
21979;SDS011;11154;48.558;9.234;2023-10-08T10:46:49;10.88;;;3.75;;
21979;SDS011;11154;48.558;9.234;2023-10-08T10:48:51;11.35;;;3.10;;
21979;SDS011;11154;48.558;9.234;2023-10-08T10:51:05;11.20;;;4.07;;
21979;SDS011;11154;48.558;9.234;2023-10-08T10:53:10;14.20;;;4.25;;
21979;SDS011;11154;48.558;9.234;2023-10-08T10:55:11;8.68;;;3.30;;
21979;SDS011;11154;48.558;9.234;2023-10-08T10:57:25;11.38;;;3.65;;
21979;SDS011;11154;48.558;9.234;2023-10-08T10:59:34;14.57;;;3.53;;
21979;SDS011;11154;48.558;9.234;2023-10-08T11:01:38;14.50;;;3.58;;
21979;SDS011;11154;48.558;9.234;2023-10-08T11:03:48;15.48;;;3.47;;
21979;SDS011;11154;48.558;9.234;2023-10-08T11:05:53;12.30;;;3.47;;
21979;SDS011;11154;48.558;9.234;2023-10-08T11:07:59;10.48;;;3.53;;
21979;SDS011;11154;48.558;9.234;2023-10-08T11:10:05;12.60;;;3.78;;
21979;SDS011;11154;48.558;9.234;2023-10-08T11:12:10;15.55;;;4.53;;
21979;SDS011;11154;48.558;9.234;2023-10-08T11:14:20;13.98;;;4.18;;
21979;SDS011;11154;48.558;9.234;2023-10-08T11:16:22;20.17;;;3.63;;
21979;SDS011;11154;48.558;9.234;2023-10-08T11:18:25;15.35;;;3.67;;
21979;SDS011;11154;48.558;9.234;2023-10-08T11:20:28;11.25;;;3.17;;
21979;SDS011;11154;48.558;9.234;2023-10-08T11:22:40;11.68;;;3.35;;
21979;SDS011;11154;48.558;9.234;2023-10-08T11:24:42;16.90;;;3.67;;
21979;SDS011;11154;48.558;9.234;2023-10-08T11:26:47;11.18;;;3.53;;
21979;SDS011;11154;48.558;9.234;2023-10-08T11:29:03;9.70;;;3.20;;
21979;SDS011;11154;48.558;9.234;2023-10-08T11:31:06;16.40;;;3.60;;
21979;SDS011;11154;48.558;9.234;2023-10-08T11:33:08;11.70;;;3.42;;
21979;SDS011;11154;48.558;9.234;2023-10-08T11:35:15;14.57;;;3.70;;
21979;SDS011;11154;48.558;9.234;2023-10-08T11:37:26;18.50;;;3.28;;
21979;SDS011;11154;48.558;9.234;2023-10-08T11:39:28;12.25;;;3.53;;
21979;SDS011;11154;48.558;9.234;2023-10-08T11:41:31;16.25;;;3.75;;
21979;SDS011;11154;48.558;9.234;2023-10-08T11:43:44;14.65;;;3.88;;
21979;SDS011;11154;48.558;9.234;2023-10-08T11:45:46;12.23;;;3.40;;
21979;SDS011;11154;48.558;9.234;2023-10-08T11:47:50;12.52;;;3.53;;
21979;SDS011;11154;48.558;9.234;2023-10-08T11:49:55;10.38;;;3.13;;
21979;SDS011;11154;48.558;9.234;2023-10-08T11:52:10;9.65;;;3.30;;
21979;SDS011;11154;48.558;9.234;2023-10-08T11:54:11;9.90;;;3.53;;
21979;SDS011;11154;48.558;9.234;2023-10-08T11:56:14;11.68;;;3.03;;
21979;SDS011;11154;48.558;9.234;2023-10-08T11:58:16;10.10;;;3.38;;
21979;SDS011;11154;48.558;9.234;2023-10-08T12:00:20;16.98;;;4.13;;
21979;SDS011;11154;48.558;9.234;2023-10-08T12:02:25;10.60;;;3.40;;
21979;SDS011;11154;48.558;9.234;2023-10-08T12:04:28;11.43;;;3.83;;
21979;SDS011;11154;48.558;9.234;2023-10-08T12:06:31;7.72;;;3.10;;
21979;SDS011;11154;48.558;9.234;2023-10-08T12:08:33;12.23;;;3.55;;
21979;SDS011;11154;48.558;9.234;2023-10-08T12:10:39;11.13;;;3.72;;
21979;SDS011;11154;48.558;9.234;2023-10-08T12:12:41;9.02;;;3.60;;
21979;SDS011;11154;48.558;9.234;2023-10-08T12:14:42;12.35;;;3.95;;
21979;SDS011;11154;48.558;9.234;2023-10-08T12:16:45;8.85;;;3.45;;
21979;SDS011;11154;48.558;9.234;2023-10-08T12:18:47;13.68;;;4.05;;
21979;SDS011;11154;48.558;9.234;2023-10-08T12:20:50;9.75;;;3.30;;
21979;SDS011;11154;48.558;9.234;2023-10-08T12:22:52;7.35;;;3.28;;
21979;SDS011;11154;48.558;9.234;2023-10-08T12:24:54;11.18;;;3.55;;
21979;SDS011;11154;48.558;9.234;2023-10-08T12:26:55;11.75;;;3.67;;
21979;SDS011;11154;48.558;9.234;2023-10-08T12:28:58;12.73;;;3.22;;
21979;SDS011;11154;48.558;9.234;2023-10-08T12:31:00;8.10;;;3.50;;
21979;SDS011;11154;48.558;9.234;2023-10-08T12:33:01;7.75;;;3.53;;
21979;SDS011;11154;48.558;9.234;2023-10-08T12:35:03;12.45;;;4.13;;
21979;SDS011;11154;48.558;9.234;2023-10-08T12:37:06;13.50;;;3.22;;